Finley, Australia
Current Conditions -  °F | °C
As of 12:00 PM on Tuesday 27 Jan 2015 (Local Time) from YMAY Reporting Station
Overcast Overcast  
Wind Chill: 73°   Ceiling: 5100
Heat Index: 73°   Visibility: 6mi
Dew Point: 52°   Wind: 8mph
Humidity: 47%   Direction: 140°SE
Pressure: 29.88"   Gusts: NA
Location:  35.65°S, 145.58°E
Report Text: YMAY 270100Z AUTO 14007KT 9999 // OVC051 23/11 Q1012
Loading
Personal Weather Stations






























Interactive Weather Map New forecast layout! Learn more

10-Day Weather Forecast

Advertisements
Track Severe Weather on mobile